Sterling, MI (48659)

7:28 PM EDT on May 06, 2015 (GMT -0400)
MesoWest | | Change Station
CLOSE
Current Station
Personal Weather Station
Location: West Branch, MI
Elevation: 977 ft
Nearby Weather Stations

Elev 977 ft 44.25 °N, 84.23 °W | Updated 33 minutes ago

Clear
Clear
71 °F
Feels Like 77 °F
N
7
Wind Variable Wind from South
Gusts 10.0 mph

Today
High -- | Low -- °F
--% Chance of Precip.
Yesterday
High -- | Low -- °F
Precip. -- in
6:21 AM 8:45 PM
Waning Gibbous, 92% visible
Pressure 30.15 in
Visibility 10.0 miles
Clouds Clear
Heat Index 77 °F
Dew Point 53 °F
Humidity 52%
Rainfall in
Snow Depth Not available.
UV 1 out of 12
Pollen 10.50 out of 12
Air Quality Not available.
Flu Activity Regional
METAR KIKW 062313Z AUTO 08007KT 10SM CLR 20/10 A3015 RMK AO2 T02010100

More Conditions Fewer Conditions

Pressure 30.15 in
Visibility 10.0 miles
Clouds Clear
Heat Index 77 °F
Dew Point 53 °F
Humidity 52%
Rainfall in
Snow Depth Not available.
UV 1 out of 12
Pollen 10.50 out of 12
Air Quality Not available.
Flu Activity Regional
METAR KIKW 062313Z AUTO 08007KT 10SM CLR 20/10 A3015 RMK AO2 T02010100

More Conditions Fewer Conditions

Nowcast | as of 7:00 PM EDT on May 6, 2015

At 8 PM...partly cloudy. Temperature 62. East winds 6 mph. At 10 PM...partly cloudy. Temperature 56. East winds 5 mph. At 12 am...partly cloudy. Temperature 52. Light winds. At 2 am...partly cloudy. Patchy fog. Temperature 51. Light winds.

×

10-Day Weather Forecast

Almanac

Astronomy

May. 06, 2015 Rise Set
Actual Time
Civil Twilight
Nautical Twilight
Astronomical Twilight
Moon
Length of Visible Light
Length of Day
Tomorrow will be .
, % of the Moon is Illuminated

Today's Extremes

State Highs State Lows

Community

WunderPhotos

Upload Photos

1,819,039 photos uploaded!

WunderBlogs® & News

Nearby

Air Quality

  Air Quality AQ Index Pollutant
Not available.

Snow Depth

Station Depth Elevation

Earthquake Activity

City Distance Mag. Time & Date
Minimum magnitude displayed is 2.5.

Coastal Water Temperatures

Place Temperature

Stations

Nearby Weather Stations

Station Location Temp. Windchill Dew Point Humidity Wind Precip. Elev Updated Type